createdAt,value
2019-05-22T00:04:46.102Z,34.48
2019-05-22T00:10:12.198Z,37.53
2019-05-22T00:15:38.647Z,38.88
2019-05-22T00:21:04.494Z,35.67
2019-05-22T00:26:29.181Z,32.58
2019-05-22T00:31:53.019Z,29.20
2019-05-22T00:37:17.684Z,23.20
2019-05-22T00:42:45.764Z,21.40
2019-05-22T00:48:11.457Z,23.12
2019-05-22T00:53:55.618Z,21.03
2019-05-22T00:59:29.286Z,19.17
2019-05-22T01:04:54.877Z,19.57
2019-05-22T01:10:18.912Z,20.17
2019-05-22T01:15:43.430Z,21.62
2019-05-22T01:21:09.937Z,23.32
2019-05-22T01:26:35.691Z,22.80
2019-05-22T01:32:08.454Z,21.97
2019-05-22T01:37:34.636Z,20.20
2019-05-22T01:43:00.674Z,18.85
2019-05-22T01:48:31.526Z,17.20
2019-05-22T01:53:56.071Z,15.48
2019-05-22T01:59:20.100Z,13.97
2019-05-22T02:04:47.508Z,13.90
2019-05-22T02:10:17.516Z,13.70
2019-05-22T02:15:41.494Z,13.20
2019-05-22T02:21:06.874Z,15.20
2019-05-22T02:26:32.130Z,15.80
2019-05-22T02:31:58.538Z,13.80
2019-05-22T02:37:24.556Z,12.53
2019-05-22T02:42:50.592Z,11.20
2019-05-22T02:48:15.469Z,10.37
2019-05-22T02:53:40.974Z,10.63
2019-05-22T02:59:07.597Z,9.87
2019-05-22T03:05:03.749Z,9.40
2019-05-22T03:10:29.643Z,10.50
2019-05-22T03:15:54.959Z,11.17
2019-05-22T03:21:20.054Z,12.73
2019-05-22T03:26:48.725Z,13.70
2019-05-22T03:32:13.396Z,14.03
2019-05-22T03:37:39.605Z,14.00
2019-05-22T03:43:15.888Z,13.27
2019-05-22T03:48:40.597Z,13.30
2019-05-22T03:54:06.532Z,13.73
2019-05-22T03:59:31.206Z,12.37
2019-05-22T04:04:55.120Z,12.57
2019-05-22T04:10:21.522Z,14.53
2019-05-22T04:15:46.015Z,15.37
2019-05-22T04:21:10.180Z,15.23
2019-05-22T04:26:34.260Z,11.63
2019-05-22T04:32:15.623Z,12.40
2019-05-22T04:37:43.094Z,13.03
2019-05-22T04:43:08.420Z,13.67
2019-05-22T04:48:35.012Z,13.63
2019-05-22T04:53:59.339Z,12.70
2019-05-22T04:59:24.245Z,11.50
2019-05-22T05:04:48.237Z,10.37
2019-05-22T05:10:13.026Z,12.87
2019-05-22T05:15:37.369Z,11.57
2019-05-22T05:21:01.827Z,11.10
2019-05-22T05:26:26.812Z,9.70
2019-05-22T05:31:52.141Z,8.27
2019-05-22T05:37:20.632Z,8.13
2019-05-22T05:42:45.676Z,6.50
2019-05-22T05:48:11.993Z,6.60
2019-05-22T05:53:44.315Z,6.80
2019-05-22T05:59:09.209Z,6.43
2019-05-22T06:04:39.394Z,7.93
2019-05-22T06:10:31.442Z,7.27
2019-05-22T06:17:00.887Z,8.37
2019-05-22T06:22:25.358Z,8.53
2019-05-22T06:27:55.282Z,7.33
2019-05-22T06:33:30.493Z,7.13
2019-05-22T06:39:03.040Z,7.93
2019-05-22T06:44:32.714Z,8.47
2019-05-22T06:49:57.801Z,8.60
2019-05-22T06:55:22.648Z,8.20
2019-05-22T07:00:49.491Z,9.03
2019-05-22T07:06:14.347Z,8.93
2019-05-22T07:11:38.703Z,7.37
2019-05-22T07:17:03.110Z,6.60
2019-05-22T07:22:28.382Z,6.00
2019-05-22T07:27:52.574Z,7.47
2019-05-22T07:33:18.629Z,8.77
2019-05-22T07:38:43.269Z,5.93
2019-05-22T07:44:07.970Z,7.80
2019-05-22T07:49:32.657Z,6.97
2019-05-22T07:54:56.809Z,6.87
2019-05-22T08:00:21.482Z,6.23
2019-05-22T08:05:51.611Z,5.10
2019-05-22T08:11:15.991Z,5.83
2019-05-22T08:16:40.774Z,5.70
2019-05-22T08:22:07.667Z,5.60
2019-05-22T08:27:32.104Z,5.20
2019-05-22T08:32:58.410Z,6.10
2019-05-22T08:38:29.976Z,5.67
2019-05-22T08:44:14.336Z,6.40
2019-05-22T08:49:20.230Z,6.53
2019-05-22T08:54:47.419Z,6.50
2019-05-22T09:00:14.321Z,6.17
2019-05-22T09:05:38.161Z,7.00
2019-05-22T09:11:03.780Z,7.30
2019-05-22T09:16:27.837Z,8.03
2019-05-22T09:21:51.573Z,6.83
2019-05-22T09:27:16.692Z,7.07
2019-05-22T09:32:40.815Z,7.27
2019-05-22T09:38:04.867Z,7.23
2019-05-22T09:43:29.843Z,6.57
2019-05-22T09:48:54.799Z,6.20
2019-05-22T09:54:19.673Z,6.43
2019-05-22T09:59:44.089Z,5.63
2019-05-22T10:05:11.000Z,5.47
2019-05-22T10:10:36.314Z,6.20
2019-05-22T10:15:59.815Z,5.50
2019-05-22T10:21:26.083Z,6.23
2019-05-22T10:26:50.149Z,5.10
2019-05-22T10:32:14.323Z,5.80
2019-05-22T10:37:38.230Z,5.27
2019-05-22T10:43:03.354Z,6.07
2019-05-22T10:48:28.418Z,6.47
2019-05-22T10:53:53.066Z,6.50
2019-05-22T10:59:17.476Z,6.93
2019-05-22T11:04:42.185Z,6.37
2019-05-22T11:10:06.647Z,6.63
2019-05-22T11:15:31.921Z,7.20
2019-05-22T11:20:56.173Z,6.93
2019-05-22T11:26:20.279Z,7.67
2019-05-22T11:31:44.996Z,8.60
2019-05-22T11:37:10.151Z,8.03
2019-05-22T11:42:34.860Z,9.37
2019-05-22T11:47:59.241Z,10.70
2019-05-22T11:53:22.646Z,11.97
2019-05-22T11:58:46.518Z,12.03
2019-05-22T12:04:12.011Z,12.60
2019-05-22T12:09:35.857Z,13.33
2019-05-22T12:15:00.625Z,14.63
2019-05-22T12:20:26.001Z,15.67
2019-05-22T12:25:49.605Z,16.97
2019-05-22T12:31:14.834Z,18.23
2019-05-22T12:36:38.604Z,20.30
2019-05-22T12:42:03.179Z,19.53
2019-05-22T12:47:27.810Z,18.70
2019-05-22T12:52:52.954Z,18.60
2019-05-22T12:58:18.204Z,18.17
2019-05-22T13:03:42.494Z,18.00
2019-05-22T13:09:10.676Z,17.07
2019-05-22T13:14:36.313Z,16.57
2019-05-22T13:20:01.208Z,17.53
2019-05-22T13:25:32.704Z,18.40
2019-05-22T13:30:58.230Z,18.63
2019-05-22T13:36:22.451Z,16.97
2019-05-22T13:41:46.905Z,17.33
2019-05-22T13:47:12.375Z,17.30
2019-05-22T13:52:37.970Z,17.77
2019-05-22T13:58:03.849Z,17.00
2019-05-22T14:03:28.495Z,17.20
2019-05-22T14:08:53.651Z,16.50
2019-05-22T14:14:17.952Z,17.53
2019-05-22T14:19:42.783Z,17.80
2019-05-22T14:25:07.824Z,17.37
2019-05-22T14:30:32.721Z,16.97
2019-05-22T14:35:57.199Z,18.37
2019-05-22T14:41:21.942Z,19.13
2019-05-22T14:46:46.303Z,18.50
2019-05-22T14:52:11.303Z,19.60
2019-05-22T14:57:35.965Z,19.03
2019-05-22T15:03:00.010Z,17.83
2019-05-22T15:08:24.798Z,17.17
2019-05-22T15:13:49.773Z,16.93
2019-05-22T15:19:14.651Z,16.27
2019-05-22T15:24:38.469Z,15.37
2019-05-22T15:30:03.552Z,14.97
2019-05-22T15:35:27.507Z,15.20
2019-05-22T15:40:53.089Z,15.07
2019-05-22T15:46:18.154Z,14.57
2019-05-22T15:51:44.239Z,14.53
2019-05-22T15:57:10.559Z,14.70
2019-05-22T16:02:35.276Z,15.60
2019-05-22T16:08:00.427Z,15.80
2019-05-22T16:13:26.686Z,13.77
2019-05-22T16:18:52.388Z,13.50
2019-05-22T16:24:17.507Z,14.33
2019-05-22T16:29:43.614Z,15.83
2019-05-22T16:35:08.549Z,15.00
2019-05-22T16:40:32.881Z,13.93
2019-05-22T16:45:57.649Z,12.53
2019-05-22T16:51:23.319Z,11.17
2019-05-22T16:56:47.494Z,11.57
2019-05-22T17:02:15.957Z,11.37
2019-05-22T17:07:41.854Z,9.63
2019-05-22T17:13:05.952Z,9.87
2019-05-22T17:18:45.910Z,9.93
2019-05-22T17:23:58.667Z,8.67
2019-05-22T17:29:23.387Z,9.50
2019-05-22T17:34:47.981Z,9.87
2019-05-22T17:40:15.236Z,10.70
2019-05-22T17:45:41.732Z,10.03
2019-05-22T17:51:06.966Z,8.67
2019-05-22T17:56:31.453Z,9.50
2019-05-22T18:01:57.313Z,8.60
2019-05-22T18:07:21.869Z,7.40
2019-05-22T18:12:46.133Z,7.50
2019-05-22T18:18:11.156Z,7.20
2019-05-22T18:23:35.143Z,6.30
2019-05-22T18:28:59.782Z,6.10
2019-05-22T18:34:24.690Z,5.73
2019-05-22T18:39:48.546Z,5.13
2019-05-22T18:45:14.189Z,5.03
2019-05-22T18:50:38.701Z,4.70
2019-05-22T18:56:03.748Z,5.10
2019-05-22T19:01:27.663Z,7.47
2019-05-22T19:06:55.653Z,4.50
2019-05-22T19:12:17.577Z,4.63
2019-05-22T19:17:41.735Z,4.70
2019-05-22T19:23:06.427Z,4.83
2019-05-22T19:28:42.790Z,5.43
2019-05-22T19:33:57.911Z,4.90
2019-05-22T19:39:22.198Z,4.93
2019-05-22T19:44:47.393Z,5.17
2019-05-22T19:50:22.665Z,4.70
2019-05-22T19:55:39.805Z,5.03
2019-05-22T20:01:06.258Z,4.70
2019-05-22T20:06:30.993Z,5.90
2019-05-22T20:11:55.423Z,5.20
2019-05-22T20:17:20.469Z,4.10
2019-05-22T20:22:45.733Z,5.33
2019-05-22T20:28:10.104Z,5.80
2019-05-22T20:33:33.959Z,6.93
2019-05-22T20:38:58.487Z,6.03
2019-05-22T20:44:22.794Z,5.70
2019-05-22T20:49:47.997Z,5.07
2019-05-22T20:55:14.620Z,4.43
2019-05-22T21:00:40.685Z,4.53
2019-05-22T21:06:08.385Z,4.60
2019-05-22T21:11:34.103Z,5.60
2019-05-22T21:17:00.993Z,4.93
2019-05-22T21:22:27.555Z,6.10
2019-05-22T21:27:52.664Z,4.83
2019-05-22T21:33:17.964Z,9.33
2019-05-22T21:38:42.682Z,10.03
2019-05-22T21:44:06.771Z,11.13
2019-05-22T21:49:32.173Z,5.63
2019-05-22T21:54:56.891Z,5.13
2019-05-22T22:00:41.720Z,4.70
2019-05-22T22:06:06.406Z,5.33
2019-05-22T22:11:31.616Z,4.10
2019-05-22T22:16:56.369Z,4.63
2019-05-22T22:22:28.200Z,4.73
2019-05-22T22:27:52.517Z,4.23
2019-05-22T22:33:23.457Z,4.23
2019-05-22T22:38:48.191Z,5.00
2019-05-22T22:44:12.410Z,4.87
2019-05-22T22:49:37.883Z,4.23
2019-05-22T22:55:04.020Z,4.87
2019-05-22T23:00:37.718Z,4.87
2019-05-22T23:06:02.288Z,4.60
2019-05-22T23:11:27.439Z,4.53
2019-05-22T23:16:53.076Z,4.23
2019-05-22T23:22:32.049Z,5.07
2019-05-22T23:27:56.964Z,4.30
2019-05-22T23:33:20.692Z,4.80
2019-05-22T23:38:46.488Z,5.00
2019-05-22T23:44:14.510Z,4.47
2019-05-22T23:49:42.692Z,4.23
2019-05-22T23:55:06.777Z,4.70
